sensor_id;sensor_type;location;lat;lon;timestamp;P1;durP1;ratioP1;P2;durP2;ratioP2
68089;SDS011;54880;50.986;6.990;2022-12-18T00:01:22;20.00;;;8.53;;
68089;SDS011;54880;50.986;6.990;2022-12-18T00:03:48;18.05;;;7.25;;
68089;SDS011;54880;50.986;6.990;2022-12-18T00:06:13;17.53;;;7.63;;
68089;SDS011;54880;50.986;6.990;2022-12-18T00:08:39;19.30;;;7.43;;
68089;SDS011;54880;50.986;6.990;2022-12-18T00:11:05;21.43;;;8.43;;
68089;SDS011;54880;50.986;6.990;2022-12-18T00:13:31;20.58;;;8.27;;
68089;SDS011;54880;50.986;6.990;2022-12-18T00:16:00;21.67;;;8.60;;
68089;SDS011;54880;50.986;6.990;2022-12-18T00:18:26;22.25;;;8.35;;
68089;SDS011;54880;50.986;6.990;2022-12-18T00:20:51;19.00;;;7.60;;
68089;SDS011;54880;50.986;6.990;2022-12-18T00:23:16;20.57;;;7.67;;
68089;SDS011;54880;50.986;6.990;2022-12-18T00:25:41;21.60;;;8.87;;
68089;SDS011;54880;50.986;6.990;2022-12-18T00:28:07;19.13;;;8.00;;
68089;SDS011;54880;50.986;6.990;2022-12-18T00:30:32;15.77;;;7.03;;
68089;SDS011;54880;50.986;6.990;2022-12-18T00:32:57;15.97;;;7.20;;
68089;SDS011;54880;50.986;6.990;2022-12-18T00:35:24;18.30;;;7.75;;
68089;SDS011;54880;50.986;6.990;2022-12-18T00:37:51;19.30;;;8.05;;
68089;SDS011;54880;50.986;6.990;2022-12-18T00:40:16;19.10;;;7.60;;
68089;SDS011;54880;50.986;6.990;2022-12-18T00:42:41;21.27;;;7.70;;
68089;SDS011;54880;50.986;6.990;2022-12-18T00:45:26;19.80;;;8.27;;
68089;SDS011;54880;50.986;6.990;2022-12-18T00:47:51;19.85;;;7.75;;
68089;SDS011;54880;50.986;6.990;2022-12-18T00:50:17;22.47;;;7.70;;
68089;SDS011;54880;50.986;6.990;2022-12-18T00:52:42;19.47;;;7.93;;
68089;SDS011;54880;50.986;6.990;2022-12-18T00:55:07;23.87;;;7.90;;
68089;SDS011;54880;50.986;6.990;2022-12-18T00:57:33;19.70;;;8.00;;
68089;SDS011;54880;50.986;6.990;2022-12-18T00:59:58;21.40;;;8.07;;
68089;SDS011;54880;50.986;6.990;2022-12-18T01:02:23;18.05;;;8.10;;
68089;SDS011;54880;50.986;6.990;2022-12-18T01:04:49;17.90;;;7.87;;
68089;SDS011;54880;50.986;6.990;2022-12-18T01:07:18;23.20;;;9.73;;
68089;SDS011;54880;50.986;6.990;2022-12-18T01:09:43;19.43;;;7.07;;
68089;SDS011;54880;50.986;6.990;2022-12-18T01:12:08;21.30;;;8.00;;
68089;SDS011;54880;50.986;6.990;2022-12-18T01:14:34;21.60;;;8.13;;
68089;SDS011;54880;50.986;6.990;2022-12-18T01:16:59;20.33;;;7.87;;
68089;SDS011;54880;50.986;6.990;2022-12-18T01:19:25;22.42;;;8.05;;
68089;SDS011;54880;50.986;6.990;2022-12-18T01:21:50;19.00;;;7.83;;
68089;SDS011;54880;50.986;6.990;2022-12-18T01:24:15;20.63;;;8.30;;
68089;SDS011;54880;50.986;6.990;2022-12-18T01:26:43;19.80;;;7.90;;
68089;SDS011;54880;50.986;6.990;2022-12-18T01:29:11;18.38;;;7.95;;
68089;SDS011;54880;50.986;6.990;2022-12-18T01:31:37;20.30;;;7.82;;
68089;SDS011;54880;50.986;6.990;2022-12-18T01:34:03;19.88;;;8.20;;
68089;SDS011;54880;50.986;6.990;2022-12-18T01:36:29;20.65;;;8.48;;
68089;SDS011;54880;50.986;6.990;2022-12-18T01:38:55;21.92;;;8.23;;
68089;SDS011;54880;50.986;6.990;2022-12-18T01:41:22;22.50;;;7.97;;
68089;SDS011;54880;50.986;6.990;2022-12-18T01:43:51;19.48;;;8.23;;
68089;SDS011;54880;50.986;6.990;2022-12-18T01:46:18;19.63;;;8.32;;
68089;SDS011;54880;50.986;6.990;2022-12-18T01:48:44;21.30;;;8.50;;
68089;SDS011;54880;50.986;6.990;2022-12-18T01:51:10;18.63;;;7.63;;
68089;SDS011;54880;50.986;6.990;2022-12-18T01:53:36;23.25;;;8.25;;
68089;SDS011;54880;50.986;6.990;2022-12-18T01:56:02;18.30;;;8.38;;
68089;SDS011;54880;50.986;6.990;2022-12-18T01:58:30;20.30;;;8.18;;
68089;SDS011;54880;50.986;6.990;2022-12-18T02:00:57;20.10;;;8.00;;
68089;SDS011;54880;50.986;6.990;2022-12-18T02:03:22;20.63;;;7.93;;
68089;SDS011;54880;50.986;6.990;2022-12-18T02:08:34;18.80;;;8.30;;
68089;SDS011;54880;50.986;6.990;2022-12-18T02:13:46;16.80;;;7.00;;
68089;SDS011;54880;50.986;6.990;2022-12-18T02:16:29;17.48;;;7.50;;
68089;SDS011;54880;50.986;6.990;2022-12-18T02:18:56;19.95;;;7.80;;
68089;SDS011;54880;50.986;6.990;2022-12-18T02:26:36;17.25;;;8.05;;
68089;SDS011;54880;50.986;6.990;2022-12-18T02:31:36;18.15;;;7.63;;
68089;SDS011;54880;50.986;6.990;2022-12-18T02:34:03;20.05;;;8.20;;
68089;SDS011;54880;50.986;6.990;2022-12-18T02:36:34;20.77;;;7.82;;
68089;SDS011;54880;50.986;6.990;2022-12-18T02:39:02;16.33;;;7.40;;
68089;SDS011;54880;50.986;6.990;2022-12-18T02:41:27;19.40;;;7.60;;
68089;SDS011;54880;50.986;6.990;2022-12-18T02:43:55;21.58;;;7.72;;
68089;SDS011;54880;50.986;6.990;2022-12-18T02:46:42;18.25;;;7.68;;
68089;SDS011;54880;50.986;6.990;2022-12-18T02:52:19;19.70;;;7.65;;
68089;SDS011;54880;50.986;6.990;2022-12-18T02:54:47;20.60;;;7.63;;
68089;SDS011;54880;50.986;6.990;2022-12-18T02:57:18;18.63;;;7.83;;
68089;SDS011;54880;50.986;6.990;2022-12-18T02:59:50;18.02;;;7.53;;
68089;SDS011;54880;50.986;6.990;2022-12-18T03:02:21;18.27;;;6.57;;
68089;SDS011;54880;50.986;6.990;2022-12-18T03:07:26;17.20;;;7.38;;
68089;SDS011;54880;50.986;6.990;2022-12-18T03:09:54;17.75;;;7.68;;
68089;SDS011;54880;50.986;6.990;2022-12-18T03:12:21;19.65;;;7.85;;
68089;SDS011;54880;50.986;6.990;2022-12-18T03:14:50;16.97;;;7.03;;
68089;SDS011;54880;50.986;6.990;2022-12-18T03:17:17;17.45;;;7.00;;
68089;SDS011;54880;50.986;6.990;2022-12-18T03:19:45;20.23;;;7.63;;
68089;SDS011;54880;50.986;6.990;2022-12-18T03:22:11;18.93;;;9.23;;
68089;SDS011;54880;50.986;6.990;2022-12-18T03:24:43;18.65;;;7.25;;
68089;SDS011;54880;50.986;6.990;2022-12-18T03:27:11;19.08;;;7.47;;
68089;SDS011;54880;50.986;6.990;2022-12-18T03:29:40;16.60;;;7.07;;
68089;SDS011;54880;50.986;6.990;2022-12-18T03:32:12;16.25;;;7.13;;
68089;SDS011;54880;50.986;6.990;2022-12-18T03:34:40;17.98;;;7.10;;
68089;SDS011;54880;50.986;6.990;2022-12-18T03:37:09;15.90;;;7.23;;
68089;SDS011;54880;50.986;6.990;2022-12-18T03:39:35;15.98;;;6.72;;
68089;SDS011;54880;50.986;6.990;2022-12-18T03:42:12;15.93;;;6.70;;
68089;SDS011;54880;50.986;6.990;2022-12-18T03:44:52;14.85;;;6.53;;
68089;SDS011;54880;50.986;6.990;2022-12-18T03:50:13;20.08;;;7.20;;
68089;SDS011;54880;50.986;6.990;2022-12-18T03:52:47;15.88;;;6.43;;
68089;SDS011;54880;50.986;6.990;2022-12-18T03:55:15;15.97;;;6.50;;
68089;SDS011;54880;50.986;6.990;2022-12-18T03:57:44;16.30;;;6.10;;
68089;SDS011;54880;50.986;6.990;2022-12-18T04:00:15;15.73;;;5.85;;
68089;SDS011;54880;50.986;6.990;2022-12-18T04:02:54;17.27;;;6.37;;
68089;SDS011;54880;50.986;6.990;2022-12-18T04:05:26;15.27;;;6.30;;
68089;SDS011;54880;50.986;6.990;2022-12-18T04:07:52;15.40;;;6.20;;
68089;SDS011;54880;50.986;6.990;2022-12-18T04:10:20;18.35;;;6.97;;
68089;SDS011;54880;50.986;6.990;2022-12-18T04:12:45;14.45;;;6.18;;
68089;SDS011;54880;50.986;6.990;2022-12-18T04:15:13;15.67;;;6.03;;
68089;SDS011;54880;50.986;6.990;2022-12-18T04:17:39;17.50;;;6.97;;
68089;SDS011;54880;50.986;6.990;2022-12-18T04:20:08;14.30;;;5.90;;
68089;SDS011;54880;50.986;6.990;2022-12-18T04:22:36;15.80;;;6.50;;
68089;SDS011;54880;50.986;6.990;2022-12-18T04:25:02;17.30;;;6.22;;
68089;SDS011;54880;50.986;6.990;2022-12-18T04:27:34;18.50;;;7.10;;
68089;SDS011;54880;50.986;6.990;2022-12-18T04:30:01;15.88;;;7.10;;
68089;SDS011;54880;50.986;6.990;2022-12-18T04:32:26;17.07;;;6.63;;
68089;SDS011;54880;50.986;6.990;2022-12-18T04:34:51;16.63;;;6.17;;
68089;SDS011;54880;50.986;6.990;2022-12-18T04:37:17;14.37;;;6.43;;
68089;SDS011;54880;50.986;6.990;2022-12-18T04:39:43;16.67;;;6.22;;
68089;SDS011;54880;50.986;6.990;2022-12-18T04:42:15;20.20;;;7.05;;
68089;SDS011;54880;50.986;6.990;2022-12-18T04:44:40;16.23;;;6.70;;
68089;SDS011;54880;50.986;6.990;2022-12-18T04:47:05;17.30;;;7.17;;
68089;SDS011;54880;50.986;6.990;2022-12-18T04:49:32;20.67;;;7.20;;
68089;SDS011;54880;50.986;6.990;2022-12-18T04:51:57;15.37;;;6.00;;
68089;SDS011;54880;50.986;6.990;2022-12-18T04:54:23;14.48;;;5.72;;
68089;SDS011;54880;50.986;6.990;2022-12-18T04:56:48;16.73;;;6.00;;
68089;SDS011;54880;50.986;6.990;2022-12-18T04:59:13;15.00;;;6.93;;
68089;SDS011;54880;50.986;6.990;2022-12-18T05:01:38;14.23;;;6.03;;
68089;SDS011;54880;50.986;6.990;2022-12-18T05:04:03;13.33;;;6.20;;
68089;SDS011;54880;50.986;6.990;2022-12-18T05:06:29;15.27;;;6.37;;
68089;SDS011;54880;50.986;6.990;2022-12-18T05:08:54;15.77;;;6.33;;
68089;SDS011;54880;50.986;6.990;2022-12-18T05:11:19;16.50;;;6.83;;
68089;SDS011;54880;50.986;6.990;2022-12-18T05:13:45;12.63;;;5.43;;
68089;SDS011;54880;50.986;6.990;2022-12-18T05:16:11;15.38;;;6.05;;
68089;SDS011;54880;50.986;6.990;2022-12-18T05:18:36;15.83;;;6.40;;
68089;SDS011;54880;50.986;6.990;2022-12-18T05:21:01;21.57;;;6.73;;
68089;SDS011;54880;50.986;6.990;2022-12-18T05:23:27;15.00;;;6.23;;
68089;SDS011;54880;50.986;6.990;2022-12-18T05:25:53;16.20;;;6.50;;
68089;SDS011;54880;50.986;6.990;2022-12-18T05:28:19;18.08;;;7.07;;
68089;SDS011;54880;50.986;6.990;2022-12-18T05:30:49;16.87;;;6.17;;
68089;SDS011;54880;50.986;6.990;2022-12-18T05:33:15;16.27;;;6.50;;
68089;SDS011;54880;50.986;6.990;2022-12-18T05:35:41;15.97;;;6.13;;
68089;SDS011;54880;50.986;6.990;2022-12-18T05:38:06;13.10;;;6.13;;
68089;SDS011;54880;50.986;6.990;2022-12-18T05:40:31;18.10;;;7.17;;
68089;SDS011;54880;50.986;6.990;2022-12-18T05:42:56;19.23;;;6.53;;
68089;SDS011;54880;50.986;6.990;2022-12-18T05:45:21;13.83;;;6.17;;
68089;SDS011;54880;50.986;6.990;2022-12-18T05:47:47;18.63;;;7.23;;
68089;SDS011;54880;50.986;6.990;2022-12-18T05:50:12;17.03;;;6.27;;
68089;SDS011;54880;50.986;6.990;2022-12-18T05:52:37;15.17;;;6.70;;
68089;SDS011;54880;50.986;6.990;2022-12-18T05:55:02;14.57;;;5.90;;
68089;SDS011;54880;50.986;6.990;2022-12-18T05:57:28;18.23;;;6.50;;
68089;SDS011;54880;50.986;6.990;2022-12-18T05:59:53;16.33;;;5.93;;
68089;SDS011;54880;50.986;6.990;2022-12-18T06:02:18;14.13;;;6.40;;
68089;SDS011;54880;50.986;6.990;2022-12-18T06:04:45;13.52;;;6.00;;
68089;SDS011;54880;50.986;6.990;2022-12-18T06:07:11;16.60;;;6.00;;
68089;SDS011;54880;50.986;6.990;2022-12-18T06:09:36;17.00;;;7.13;;
68089;SDS011;54880;50.986;6.990;2022-12-18T06:12:01;15.00;;;6.23;;
68089;SDS011;54880;50.986;6.990;2022-12-18T06:14:26;16.10;;;6.60;;
68089;SDS011;54880;50.986;6.990;2022-12-18T06:16:52;17.13;;;7.13;;
68089;SDS011;54880;50.986;6.990;2022-12-18T06:19:17;18.47;;;7.47;;
68089;SDS011;54880;50.986;6.990;2022-12-18T06:21:42;17.63;;;6.90;;
68089;SDS011;54880;50.986;6.990;2022-12-18T06:24:07;24.50;;;10.93;;
68089;SDS011;54880;50.986;6.990;2022-12-18T06:26:33;21.70;;;9.13;;
68089;SDS011;54880;50.986;6.990;2022-12-18T06:28:58;19.23;;;7.70;;
68089;SDS011;54880;50.986;6.990;2022-12-18T06:31:23;17.37;;;7.03;;
68089;SDS011;54880;50.986;6.990;2022-12-18T06:33:49;19.03;;;7.10;;
68089;SDS011;54880;50.986;6.990;2022-12-18T06:36:14;19.00;;;7.67;;
68089;SDS011;54880;50.986;6.990;2022-12-18T06:38:41;18.87;;;7.50;;
68089;SDS011;54880;50.986;6.990;2022-12-18T06:41:10;17.15;;;7.32;;
68089;SDS011;54880;50.986;6.990;2022-12-18T06:43:36;16.77;;;7.32;;
68089;SDS011;54880;50.986;6.990;2022-12-18T06:46:02;16.97;;;7.00;;
68089;SDS011;54880;50.986;6.990;2022-12-18T06:48:27;16.17;;;7.77;;
68089;SDS011;54880;50.986;6.990;2022-12-18T06:50:52;17.07;;;7.73;;
68089;SDS011;54880;50.986;6.990;2022-12-18T06:53:17;17.33;;;7.23;;
68089;SDS011;54880;50.986;6.990;2022-12-18T06:55:43;15.40;;;6.93;;
68089;SDS011;54880;50.986;6.990;2022-12-18T06:58:08;19.33;;;8.57;;
68089;SDS011;54880;50.986;6.990;2022-12-18T07:00:33;18.03;;;7.53;;
68089;SDS011;54880;50.986;6.990;2022-12-18T07:02:58;17.87;;;7.93;;
68089;SDS011;54880;50.986;6.990;2022-12-18T07:05:24;19.83;;;8.23;;
68089;SDS011;54880;50.986;6.990;2022-12-18T07:07:49;17.70;;;6.97;;
68089;SDS011;54880;50.986;6.990;2022-12-18T07:10:14;18.00;;;7.30;;
68089;SDS011;54880;50.986;6.990;2022-12-18T07:12:39;21.30;;;7.53;;
68089;SDS011;54880;50.986;6.990;2022-12-18T07:15:05;24.93;;;7.90;;
68089;SDS011;54880;50.986;6.990;2022-12-18T07:17:30;19.47;;;8.03;;
68089;SDS011;54880;50.986;6.990;2022-12-18T07:19:55;19.33;;;8.25;;
68089;SDS011;54880;50.986;6.990;2022-12-18T07:22:21;20.73;;;7.90;;
68089;SDS011;54880;50.986;6.990;2022-12-18T07:24:46;18.23;;;7.43;;
68089;SDS011;54880;50.986;6.990;2022-12-18T07:27:11;15.95;;;6.93;;
68089;SDS011;54880;50.986;6.990;2022-12-18T07:29:36;20.47;;;7.83;;
68089;SDS011;54880;50.986;6.990;2022-12-18T07:32:02;21.23;;;8.73;;
68089;SDS011;54880;50.986;6.990;2022-12-18T07:34:27;17.87;;;7.90;;
68089;SDS011;54880;50.986;6.990;2022-12-18T07:36:52;19.60;;;8.37;;
68089;SDS011;54880;50.986;6.990;2022-12-18T07:39:17;22.57;;;8.27;;
68089;SDS011;54880;50.986;6.990;2022-12-18T07:41:43;18.53;;;8.27;;
68089;SDS011;54880;50.986;6.990;2022-12-18T07:44:11;19.73;;;7.00;;
68089;SDS011;54880;50.986;6.990;2022-12-18T07:46:36;19.80;;;8.20;;
68089;SDS011;54880;50.986;6.990;2022-12-18T07:49:01;16.70;;;8.20;;
68089;SDS011;54880;50.986;6.990;2022-12-18T07:51:27;19.67;;;7.77;;
68089;SDS011;54880;50.986;6.990;2022-12-18T07:53:52;18.13;;;7.63;;
68089;SDS011;54880;50.986;6.990;2022-12-18T07:56:17;18.67;;;7.50;;
68089;SDS011;54880;50.986;6.990;2022-12-18T07:58:42;21.70;;;8.20;;
68089;SDS011;54880;50.986;6.990;2022-12-18T08:01:10;21.13;;;8.37;;
68089;SDS011;54880;50.986;6.990;2022-12-18T08:03:36;20.50;;;8.32;;
68089;SDS011;54880;50.986;6.990;2022-12-18T08:06:02;23.40;;;8.25;;
68089;SDS011;54880;50.986;6.990;2022-12-18T08:08:28;17.67;;;7.70;;
68089;SDS011;54880;50.986;6.990;2022-12-18T08:10:53;20.10;;;8.50;;
68089;SDS011;54880;50.986;6.990;2022-12-18T08:13:18;16.23;;;6.43;;
68089;SDS011;54880;50.986;6.990;2022-12-18T08:15:44;18.33;;;8.10;;
68089;SDS011;54880;50.986;6.990;2022-12-18T08:18:09;19.73;;;7.97;;
68089;SDS011;54880;50.986;6.990;2022-12-18T08:20:34;17.80;;;7.37;;
68089;SDS011;54880;50.986;6.990;2022-12-18T08:22:59;20.67;;;7.93;;
68089;SDS011;54880;50.986;6.990;2022-12-18T08:25:25;20.77;;;7.87;;
68089;SDS011;54880;50.986;6.990;2022-12-18T08:27:50;20.50;;;9.57;;
68089;SDS011;54880;50.986;6.990;2022-12-18T08:30:15;21.63;;;8.37;;
68089;SDS011;54880;50.986;6.990;2022-12-18T08:32:41;22.37;;;8.30;;
68089;SDS011;54880;50.986;6.990;2022-12-18T08:35:06;19.87;;;8.20;;
68089;SDS011;54880;50.986;6.990;2022-12-18T08:37:32;19.80;;;7.95;;
68089;SDS011;54880;50.986;6.990;2022-12-18T08:39:58;23.25;;;9.20;;
68089;SDS011;54880;50.986;6.990;2022-12-18T08:42:23;21.47;;;8.67;;
68089;SDS011;54880;50.986;6.990;2022-12-18T08:45:08;21.05;;;9.13;;
68089;SDS011;54880;50.986;6.990;2022-12-18T08:47:33;17.70;;;6.28;;
68089;SDS011;54880;50.986;6.990;2022-12-18T08:49:58;18.67;;;8.30;;
68089;SDS011;54880;50.986;6.990;2022-12-18T08:52:23;19.90;;;8.63;;
68089;SDS011;54880;50.986;6.990;2022-12-18T08:54:49;18.10;;;7.90;;
68089;SDS011;54880;50.986;6.990;2022-12-18T08:57:14;19.53;;;8.07;;
68089;SDS011;54880;50.986;6.990;2022-12-18T08:59:39;21.83;;;8.00;;
68089;SDS011;54880;50.986;6.990;2022-12-18T09:02:04;21.87;;;8.23;;
68089;SDS011;54880;50.986;6.990;2022-12-18T09:04:30;17.95;;;7.78;;
68089;SDS011;54880;50.986;6.990;2022-12-18T09:06:55;15.63;;;7.20;;
68089;SDS011;54880;50.986;6.990;2022-12-18T09:09:20;19.73;;;8.40;;
68089;SDS011;54880;50.986;6.990;2022-12-18T09:11:46;20.70;;;8.60;;
68089;SDS011;54880;50.986;6.990;2022-12-18T09:14:11;19.27;;;7.83;;
68089;SDS011;54880;50.986;6.990;2022-12-18T09:16:36;19.87;;;7.93;;
68089;SDS011;54880;50.986;6.990;2022-12-18T09:19:02;18.60;;;7.10;;
68089;SDS011;54880;50.986;6.990;2022-12-18T09:21:33;18.83;;;7.93;;
68089;SDS011;54880;50.986;6.990;2022-12-18T09:23:59;16.80;;;6.63;;
68089;SDS011;54880;50.986;6.990;2022-12-18T09:26:25;21.63;;;7.88;;
68089;SDS011;54880;50.986;6.990;2022-12-18T09:28:50;21.75;;;8.35;;
68089;SDS011;54880;50.986;6.990;2022-12-18T09:31:17;17.97;;;7.60;;
68089;SDS011;54880;50.986;6.990;2022-12-18T09:33:42;21.08;;;7.88;;
68089;SDS011;54880;50.986;6.990;2022-12-18T09:36:08;20.47;;;7.93;;
68089;SDS011;54880;50.986;6.990;2022-12-18T09:38:34;19.33;;;8.00;;
68089;SDS011;54880;50.986;6.990;2022-12-18T09:41:13;21.23;;;7.97;;
68089;SDS011;54880;50.986;6.990;2022-12-18T09:43:42;18.65;;;7.80;;
68089;SDS011;54880;50.986;6.990;2022-12-18T09:46:10;17.97;;;7.87;;
68089;SDS011;54880;50.986;6.990;2022-12-18T09:48:41;17.13;;;7.43;;
68089;SDS011;54880;50.986;6.990;2022-12-18T09:51:18;18.67;;;7.55;;
68089;SDS011;54880;50.986;6.990;2022-12-18T09:53:45;17.93;;;7.60;;
68089;SDS011;54880;50.986;6.990;2022-12-18T09:56:13;19.08;;;8.13;;
68089;SDS011;54880;50.986;6.990;2022-12-18T09:58:41;19.48;;;8.05;;
68089;SDS011;54880;50.986;6.990;2022-12-18T10:01:13;19.73;;;7.30;;
68089;SDS011;54880;50.986;6.990;2022-12-18T10:03:39;19.25;;;7.75;;
68089;SDS011;54880;50.986;6.990;2022-12-18T10:06:11;21.43;;;8.73;;
68089;SDS011;54880;50.986;6.990;2022-12-18T10:13:57;19.40;;;7.93;;
68089;SDS011;54880;50.986;6.990;2022-12-18T10:16:32;20.90;;;8.10;;
68089;SDS011;54880;50.986;6.990;2022-12-18T10:19:01;21.30;;;7.53;;
68089;SDS011;54880;50.986;6.990;2022-12-18T10:21:34;20.00;;;7.27;;
68089;SDS011;54880;50.986;6.990;2022-12-18T10:26:29;18.52;;;7.45;;
68089;SDS011;54880;50.986;6.990;2022-12-18T10:28:56;20.00;;;7.80;;
68089;SDS011;54880;50.986;6.990;2022-12-18T10:31:23;18.70;;;7.60;;
68089;SDS011;54880;50.986;6.990;2022-12-18T10:33:48;23.15;;;7.88;;
68089;SDS011;54880;50.986;6.990;2022-12-18T10:36:14;20.00;;;7.70;;
68089;SDS011;54880;50.986;6.990;2022-12-18T10:38:39;18.60;;;7.83;;
68089;SDS011;54880;50.986;6.990;2022-12-18T10:41:06;14.33;;;6.93;;
68089;SDS011;54880;50.986;6.990;2022-12-18T10:43:37;16.63;;;6.75;;
68089;SDS011;54880;50.986;6.990;2022-12-18T10:48:35;20.05;;;7.80;;
68089;SDS011;54880;50.986;6.990;2022-12-18T10:51:01;18.03;;;7.97;;
68089;SDS011;54880;50.986;6.990;2022-12-18T10:53:28;21.95;;;8.90;;
68089;SDS011;54880;50.986;6.990;2022-12-18T10:55:55;20.00;;;7.85;;
68089;SDS011;54880;50.986;6.990;2022-12-18T10:58:22;16.80;;;7.18;;
68089;SDS011;54880;50.986;6.990;2022-12-18T11:01:21;17.77;;;7.27;;
68089;SDS011;54880;50.986;6.990;2022-12-18T11:06:07;20.53;;;7.13;;
68089;SDS011;54880;50.986;6.990;2022-12-18T11:08:33;19.90;;;8.25;;
68089;SDS011;54880;50.986;6.990;2022-12-18T11:10:58;23.30;;;8.17;;
68089;SDS011;54880;50.986;6.990;2022-12-18T11:13:24;18.57;;;8.50;;
68089;SDS011;54880;50.986;6.990;2022-12-18T11:15:50;16.98;;;7.13;;
68089;SDS011;54880;50.986;6.990;2022-12-18T11:18:16;16.57;;;8.00;;
68089;SDS011;54880;50.986;6.990;2022-12-18T11:20:42;19.77;;;7.93;;
68089;SDS011;54880;50.986;6.990;2022-12-18T11:23:14;20.50;;;8.27;;
68089;SDS011;54880;50.986;6.990;2022-12-18T11:25:40;18.73;;;7.90;;
68089;SDS011;54880;50.986;6.990;2022-12-18T11:28:29;15.33;;;6.23;;
68089;SDS011;54880;50.986;6.990;2022-12-18T11:31:11;17.90;;;6.85;;
68089;SDS011;54880;50.986;6.990;2022-12-18T11:33:38;23.75;;;9.32;;
68089;SDS011;54880;50.986;6.990;2022-12-18T11:36:04;20.02;;;8.57;;
68089;SDS011;54880;50.986;6.990;2022-12-18T11:38:32;20.87;;;8.87;;
68089;SDS011;54880;50.986;6.990;2022-12-18T11:43:47;24.85;;;9.63;;
68089;SDS011;54880;50.986;6.990;2022-12-18T11:46:32;24.73;;;10.13;;
68089;SDS011;54880;50.986;6.990;2022-12-18T11:51:35;18.33;;;7.35;;
68089;SDS011;54880;50.986;6.990;2022-12-18T11:54:07;25.35;;;9.85;;
68089;SDS011;54880;50.986;6.990;2022-12-18T11:56:35;25.10;;;9.63;;
68089;SDS011;54880;50.986;6.990;2022-12-18T12:09:23;27.00;;;10.40;;
68089;SDS011;54880;50.986;6.990;2022-12-18T12:14:34;22.53;;;9.33;;
68089;SDS011;54880;50.986;6.990;2022-12-18T12:17:18;26.05;;;9.68;;
68089;SDS011;54880;50.986;6.990;2022-12-18T12:20:02;23.58;;;9.80;;
68089;SDS011;54880;50.986;6.990;2022-12-18T12:30:27;26.50;;;10.65;;
68089;SDS011;54880;50.986;6.990;2022-12-18T12:33:39;27.10;;;10.35;;
68089;SDS011;54880;50.986;6.990;2022-12-18T12:35:46;22.10;;;9.52;;
68089;SDS011;54880;50.986;6.990;2022-12-18T12:38:16;25.27;;;9.90;;
68089;SDS011;54880;50.986;6.990;2022-12-18T12:40:54;20.70;;;8.38;;
68089;SDS011;54880;50.986;6.990;2022-12-18T12:46:06;17.80;;;8.55;;
68089;SDS011;54880;50.986;6.990;2022-12-18T12:51:14;25.02;;;10.45;;
68089;SDS011;54880;50.986;6.990;2022-12-18T12:53:41;26.00;;;11.43;;
68089;SDS011;54880;50.986;6.990;2022-12-18T12:56:06;24.48;;;11.38;;
68089;SDS011;54880;50.986;6.990;2022-12-18T12:58:36;26.43;;;11.47;;
68089;SDS011;54880;50.986;6.990;2022-12-18T13:03:46;33.65;;;13.40;;
68089;SDS011;54880;50.986;6.990;2022-12-18T13:09:00;25.80;;;10.63;;
68089;SDS011;54880;50.986;6.990;2022-12-18T13:11:36;26.75;;;11.32;;
68089;SDS011;54880;50.986;6.990;2022-12-18T13:14:34;28.67;;;11.43;;
68089;SDS011;54880;50.986;6.990;2022-12-18T13:19:43;25.42;;;11.05;;
68089;SDS011;54880;50.986;6.990;2022-12-18T13:22:22;27.77;;;11.17;;
68089;SDS011;54880;50.986;6.990;2022-12-18T13:24:47;26.13;;;11.60;;
68089;SDS011;54880;50.986;6.990;2022-12-18T13:29:57;28.35;;;11.73;;
68089;SDS011;54880;50.986;6.990;2022-12-18T13:32:23;25.60;;;10.93;;
68089;SDS011;54880;50.986;6.990;2022-12-18T13:34:48;29.65;;;11.52;;
68089;SDS011;54880;50.986;6.990;2022-12-18T13:39:58;26.53;;;11.03;;
68089;SDS011;54880;50.986;6.990;2022-12-18T13:45:34;26.38;;;11.27;;
68089;SDS011;54880;50.986;6.990;2022-12-18T13:47:52;25.15;;;11.13;;
68089;SDS011;54880;50.986;6.990;2022-12-18T13:50:27;26.57;;;11.40;;
68089;SDS011;54880;50.986;6.990;2022-12-18T13:52:52;25.65;;;10.43;;
68089;SDS011;54880;50.986;6.990;2022-12-18T13:55:19;24.60;;;11.18;;
68089;SDS011;54880;50.986;6.990;2022-12-18T13:57:44;24.13;;;10.98;;
68089;SDS011;54880;50.986;6.990;2022-12-18T14:02:48;28.17;;;12.00;;
68089;SDS011;54880;50.986;6.990;2022-12-18T14:05:23;25.93;;;11.30;;
68089;SDS011;54880;50.986;6.990;2022-12-18T14:07:48;25.98;;;11.10;;
68089;SDS011;54880;50.986;6.990;2022-12-18T14:10:13;31.07;;;11.53;;
68089;SDS011;54880;50.986;6.990;2022-12-18T14:12:40;30.27;;;11.75;;
68089;SDS011;54880;50.986;6.990;2022-12-18T14:15:24;26.98;;;10.30;;
68089;SDS011;54880;50.986;6.990;2022-12-18T14:17:52;27.57;;;11.33;;
68089;SDS011;54880;50.986;6.990;2022-12-18T14:20:18;27.63;;;11.25;;
68089;SDS011;54880;50.986;6.990;2022-12-18T14:22:48;21.92;;;9.07;;
68089;SDS011;54880;50.986;6.990;2022-12-18T14:27:42;28.77;;;11.55;;
68089;SDS011;54880;50.986;6.990;2022-12-18T14:33:06;32.07;;;13.30;;
68089;SDS011;54880;50.986;6.990;2022-12-18T14:35:34;26.75;;;10.98;;
68089;SDS011;54880;50.986;6.990;2022-12-18T14:40:34;26.70;;;11.27;;
68089;SDS011;54880;50.986;6.990;2022-12-18T14:42:59;32.17;;;12.30;;
68089;SDS011;54880;50.986;6.990;2022-12-18T14:45:40;30.83;;;13.03;;
68089;SDS011;54880;50.986;6.990;2022-12-18T14:48:07;27.80;;;12.45;;
68089;SDS011;54880;50.986;6.990;2022-12-18T14:50:33;23.88;;;11.48;;
68089;SDS011;54880;50.986;6.990;2022-12-18T14:52:59;32.63;;;12.63;;
68089;SDS011;54880;50.986;6.990;2022-12-18T14:55:24;29.90;;;12.00;;
68089;SDS011;54880;50.986;6.990;2022-12-18T14:57:50;28.67;;;12.47;;
68089;SDS011;54880;50.986;6.990;2022-12-18T15:00:18;27.80;;;11.43;;
68089;SDS011;54880;50.986;6.990;2022-12-18T15:02:44;26.20;;;11.27;;
68089;SDS011;54880;50.986;6.990;2022-12-18T15:07:51;26.88;;;11.43;;
68089;SDS011;54880;50.986;6.990;2022-12-18T15:10:18;31.40;;;11.77;;
68089;SDS011;54880;50.986;6.990;2022-12-18T15:12:48;33.92;;;13.70;;
68089;SDS011;54880;50.986;6.990;2022-12-18T15:17:58;33.45;;;11.05;;
68089;SDS011;54880;50.986;6.990;2022-12-18T15:20:24;32.53;;;12.32;;
68089;SDS011;54880;50.986;6.990;2022-12-18T15:22:49;29.47;;;13.23;;
68089;SDS011;54880;50.986;6.990;2022-12-18T15:25:26;31.37;;;12.63;;
68089;SDS011;54880;50.986;6.990;2022-12-18T15:27:53;37.10;;;13.00;;
68089;SDS011;54880;50.986;6.990;2022-12-18T15:30:19;35.42;;;13.85;;
68089;SDS011;54880;50.986;6.990;2022-12-18T15:32:44;29.80;;;12.40;;
68089;SDS011;54880;50.986;6.990;2022-12-18T15:35:13;32.47;;;11.50;;
68089;SDS011;54880;50.986;6.990;2022-12-18T15:37:39;29.75;;;12.57;;
68089;SDS011;54880;50.986;6.990;2022-12-18T15:40:05;29.27;;;10.53;;
68089;SDS011;54880;50.986;6.990;2022-12-18T15:42:30;28.10;;;11.77;;
68089;SDS011;54880;50.986;6.990;2022-12-18T15:45:14;24.60;;;10.77;;
68089;SDS011;54880;50.986;6.990;2022-12-18T15:47:40;44.78;;;13.45;;
68089;SDS011;54880;50.986;6.990;2022-12-18T15:50:07;34.77;;;12.10;;
68089;SDS011;54880;50.986;6.990;2022-12-18T15:52:32;24.00;;;10.25;;
68089;SDS011;54880;50.986;6.990;2022-12-18T15:55:01;32.80;;;14.43;;
68089;SDS011;54880;50.986;6.990;2022-12-18T15:57:45;34.53;;;14.18;;
68089;SDS011;54880;50.986;6.990;2022-12-18T16:00:11;26.40;;;12.10;;
68089;SDS011;54880;50.986;6.990;2022-12-18T16:02:37;34.13;;;14.60;;
68089;SDS011;54880;50.986;6.990;2022-12-18T16:05:02;32.17;;;13.43;;
68089;SDS011;54880;50.986;6.990;2022-12-18T16:07:28;36.13;;;14.13;;
68089;SDS011;54880;50.986;6.990;2022-12-18T16:09:53;25.23;;;10.68;;
68089;SDS011;54880;50.986;6.990;2022-12-18T16:12:21;33.43;;;14.90;;